sensor_id;sensor_type;location;lat;lon;timestamp;temperature;humidity
11922;DHT22;6021;51.182;3.160;2024-01-15T00:01:08;3.40;1.00
11922;DHT22;6021;51.182;3.160;2024-01-15T00:03:36;3.50;1.00
11922;DHT22;6021;51.182;3.160;2024-01-15T00:06:05;3.70;1.00
11922;DHT22;6021;51.182;3.160;2024-01-15T00:08:33;3.50;1.00
11922;DHT22;6021;51.182;3.160;2024-01-15T00:11:03;3.40;1.00
11922;DHT22;6021;51.182;3.160;2024-01-15T00:13:32;4.00;1.00
11922;DHT22;6021;51.182;3.160;2024-01-15T00:16:00;3.60;1.00
11922;DHT22;6021;51.182;3.160;2024-01-15T00:18:28;3.60;1.00
11922;DHT22;6021;51.182;3.160;2024-01-15T00:20:57;3.70;1.00
11922;DHT22;6021;51.182;3.160;2024-01-15T00:23:25;3.90;1.00
11922;DHT22;6021;51.182;3.160;2024-01-15T00:25:54;3.70;1.00
11922;DHT22;6021;51.182;3.160;2024-01-15T00:28:22;4.00;1.00
11922;DHT22;6021;51.182;3.160;2024-01-15T00:30:50;3.90;1.00
11922;DHT22;6021;51.182;3.160;2024-01-15T00:33:19;3.60;1.00
11922;DHT22;6021;51.182;3.160;2024-01-15T00:35:47;3.70;1.00
11922;DHT22;6021;51.182;3.160;2024-01-15T00:38:15;3.60;1.00
11922;DHT22;6021;51.182;3.160;2024-01-15T00:40:44;3.60;1.00
11922;DHT22;6021;51.182;3.160;2024-01-15T00:43:12;3.40;1.00
11922;DHT22;6021;51.182;3.160;2024-01-15T00:45:41;3.60;1.00
11922;DHT22;6021;51.182;3.160;2024-01-15T00:48:09;3.40;1.00
11922;DHT22;6021;51.182;3.160;2024-01-15T00:50:38;3.70;1.00
11922;DHT22;6021;51.182;3.160;2024-01-15T00:53:09;3.20;1.00
11922;DHT22;6021;51.182;3.160;2024-01-15T00:55:37;3.20;1.00
11922;DHT22;6021;51.182;3.160;2024-01-15T00:58:06;3.30;1.00
11922;DHT22;6021;51.182;3.160;2024-01-15T01:00:34;3.20;1.00
11922;DHT22;6021;51.182;3.160;2024-01-15T01:03:02;3.30;1.00
11922;DHT22;6021;51.182;3.160;2024-01-15T01:05:31;3.20;1.00
11922;DHT22;6021;51.182;3.160;2024-01-15T01:07:59;3.30;1.00
11922;DHT22;6021;51.182;3.160;2024-01-15T01:10:28;3.20;1.00
11922;DHT22;6021;51.182;3.160;2024-01-15T01:12:56;3.30;1.00
11922;DHT22;6021;51.182;3.160;2024-01-15T01:15:25;3.40;1.00
11922;DHT22;6021;51.182;3.160;2024-01-15T01:17:53;3.60;1.00
11922;DHT22;6021;51.182;3.160;2024-01-15T01:20:21;3.40;1.00
11922;DHT22;6021;51.182;3.160;2024-01-15T01:22:50;3.40;1.00
11922;DHT22;6021;51.182;3.160;2024-01-15T01:25:18;3.40;1.00
11922;DHT22;6021;51.182;3.160;2024-01-15T01:27:46;3.80;1.00
11922;DHT22;6021;51.182;3.160;2024-01-15T01:30:15;3.90;1.00
11922;DHT22;6021;51.182;3.160;2024-01-15T01:32:43;3.40;1.00
11922;DHT22;6021;51.182;3.160;2024-01-15T01:35:12;3.40;1.00
11922;DHT22;6021;51.182;3.160;2024-01-15T01:37:41;3.40;1.00
11922;DHT22;6021;51.182;3.160;2024-01-15T01:40:10;3.70;1.00
11922;DHT22;6021;51.182;3.160;2024-01-15T01:42:38;3.40;1.00
11922;DHT22;6021;51.182;3.160;2024-01-15T01:45:07;3.50;1.00
11922;DHT22;6021;51.182;3.160;2024-01-15T01:47:36;3.40;1.00
11922;DHT22;6021;51.182;3.160;2024-01-15T01:50:05;3.40;1.00
11922;DHT22;6021;51.182;3.160;2024-01-15T01:52:34;3.70;1.00
11922;DHT22;6021;51.182;3.160;2024-01-15T01:55:04;3.40;1.00
11922;DHT22;6021;51.182;3.160;2024-01-15T01:57:34;3.60;1.00
11922;DHT22;6021;51.182;3.160;2024-01-15T02:00:03;3.50;1.00
11922;DHT22;6021;51.182;3.160;2024-01-15T02:02:34;3.40;1.00
11922;DHT22;6021;51.182;3.160;2024-01-15T02:05:04;3.40;1.00
11922;DHT22;6021;51.182;3.160;2024-01-15T02:07:34;3.20;1.00
11922;DHT22;6021;51.182;3.160;2024-01-15T02:10:03;3.40;1.00
11922;DHT22;6021;51.182;3.160;2024-01-15T02:12:33;3.30;1.00
11922;DHT22;6021;51.182;3.160;2024-01-15T02:15:01;3.40;1.00
11922;DHT22;6021;51.182;3.160;2024-01-15T02:17:30;3.50;1.00
11922;DHT22;6021;51.182;3.160;2024-01-15T02:19:58;3.70;1.00
11922;DHT22;6021;51.182;3.160;2024-01-15T02:22:27;3.40;1.00
11922;DHT22;6021;51.182;3.160;2024-01-15T02:24:55;3.70;1.00
11922;DHT22;6021;51.182;3.160;2024-01-15T02:27:24;3.70;1.00
11922;DHT22;6021;51.182;3.160;2024-01-15T02:29:52;3.60;1.00
11922;DHT22;6021;51.182;3.160;2024-01-15T02:32:21;3.40;1.00
11922;DHT22;6021;51.182;3.160;2024-01-15T02:34:51;3.60;1.00
11922;DHT22;6021;51.182;3.160;2024-01-15T02:37:20;3.40;1.00
11922;DHT22;6021;51.182;3.160;2024-01-15T02:39:48;3.80;1.00
11922;DHT22;6021;51.182;3.160;2024-01-15T02:42:16;3.70;1.00
11922;DHT22;6021;51.182;3.160;2024-01-15T02:44:45;3.40;1.00
11922;DHT22;6021;51.182;3.160;2024-01-15T02:47:13;3.60;1.00
11922;DHT22;6021;51.182;3.160;2024-01-15T02:49:41;3.70;1.00
11922;DHT22;6021;51.182;3.160;2024-01-15T02:52:10;3.60;1.00
11922;DHT22;6021;51.182;3.160;2024-01-15T02:54:38;3.50;1.00
11922;DHT22;6021;51.182;3.160;2024-01-15T02:57:06;3.20;1.00
11922;DHT22;6021;51.182;3.160;2024-01-15T02:59:35;3.70;1.00
11922;DHT22;6021;51.182;3.160;2024-01-15T03:02:03;3.50;1.00
11922;DHT22;6021;51.182;3.160;2024-01-15T03:04:31;3.40;1.00
11922;DHT22;6021;51.182;3.160;2024-01-15T03:07:00;3.50;1.00
11922;DHT22;6021;51.182;3.160;2024-01-15T03:09:28;3.40;1.00
11922;DHT22;6021;51.182;3.160;2024-01-15T03:11:56;3.70;1.00
11922;DHT22;6021;51.182;3.160;2024-01-15T03:14:25;3.70;1.00
11922;DHT22;6021;51.182;3.160;2024-01-15T03:16:53;3.40;1.00
11922;DHT22;6021;51.182;3.160;2024-01-15T03:19:22;3.50;1.00
11922;DHT22;6021;51.182;3.160;2024-01-15T03:21:50;3.30;1.00
11922;DHT22;6021;51.182;3.160;2024-01-15T03:24:19;3.30;1.00
11922;DHT22;6021;51.182;3.160;2024-01-15T03:26:48;3.40;1.00
11922;DHT22;6021;51.182;3.160;2024-01-15T03:29:16;3.50;1.00
11922;DHT22;6021;51.182;3.160;2024-01-15T03:31:44;3.20;1.00
11922;DHT22;6021;51.182;3.160;2024-01-15T03:34:13;3.70;1.00
11922;DHT22;6021;51.182;3.160;2024-01-15T03:36:41;3.60;1.00
11922;DHT22;6021;51.182;3.160;2024-01-15T03:39:10;3.20;1.00
11922;DHT22;6021;51.182;3.160;2024-01-15T03:41:38;3.40;1.00
11922;DHT22;6021;51.182;3.160;2024-01-15T03:44:06;3.60;1.00
11922;DHT22;6021;51.182;3.160;2024-01-15T03:46:35;3.60;1.00
11922;DHT22;6021;51.182;3.160;2024-01-15T03:49:03;3.60;1.00
11922;DHT22;6021;51.182;3.160;2024-01-15T03:51:31;3.60;1.00
11922;DHT22;6021;51.182;3.160;2024-01-15T03:54:00;3.40;1.00
11922;DHT22;6021;51.182;3.160;2024-01-15T03:56:28;3.70;1.00
11922;DHT22;6021;51.182;3.160;2024-01-15T03:58:56;3.40;1.00
11922;DHT22;6021;51.182;3.160;2024-01-15T04:01:25;3.60;1.00
11922;DHT22;6021;51.182;3.160;2024-01-15T04:03:53;3.40;1.00
11922;DHT22;6021;51.182;3.160;2024-01-15T04:06:21;3.70;1.00
11922;DHT22;6021;51.182;3.160;2024-01-15T04:08:50;3.40;1.00
11922;DHT22;6021;51.182;3.160;2024-01-15T04:11:18;3.30;1.00
11922;DHT22;6021;51.182;3.160;2024-01-15T04:13:46;3.60;1.00
11922;DHT22;6021;51.182;3.160;2024-01-15T04:16:15;3.60;1.00
11922;DHT22;6021;51.182;3.160;2024-01-15T04:18:43;3.30;1.00
11922;DHT22;6021;51.182;3.160;2024-01-15T04:21:11;3.30;1.00
11922;DHT22;6021;51.182;3.160;2024-01-15T04:23:40;3.00;1.00
11922;DHT22;6021;51.182;3.160;2024-01-15T04:26:08;2.90;1.00
11922;DHT22;6021;51.182;3.160;2024-01-15T04:28:36;3.00;1.00
11922;DHT22;6021;51.182;3.160;2024-01-15T04:31:05;2.90;1.00
11922;DHT22;6021;51.182;3.160;2024-01-15T04:33:33;2.70;1.00
11922;DHT22;6021;51.182;3.160;2024-01-15T04:36:03;2.70;1.00
11922;DHT22;6021;51.182;3.160;2024-01-15T04:38:32;3.00;1.00
11922;DHT22;6021;51.182;3.160;2024-01-15T04:41:02;2.70;1.00
11922;DHT22;6021;51.182;3.160;2024-01-15T04:43:31;2.80;1.00
11922;DHT22;6021;51.182;3.160;2024-01-15T04:45:59;2.70;1.00
11922;DHT22;6021;51.182;3.160;2024-01-15T04:48:27;2.70;1.00
11922;DHT22;6021;51.182;3.160;2024-01-15T04:50:56;2.70;99.90
11922;DHT22;6021;51.182;3.160;2024-01-15T04:53:24;2.60;99.90
11922;DHT22;6021;51.182;3.160;2024-01-15T04:55:52;2.70;99.90
11922;DHT22;6021;51.182;3.160;2024-01-15T04:58:21;2.80;99.90
11922;DHT22;6021;51.182;3.160;2024-01-15T05:00:51;2.50;99.90
11922;DHT22;6021;51.182;3.160;2024-01-15T05:03:19;2.70;99.90
11922;DHT22;6021;51.182;3.160;2024-01-15T05:05:47;2.60;99.90
11922;DHT22;6021;51.182;3.160;2024-01-15T05:08:16;2.50;99.90
11922;DHT22;6021;51.182;3.160;2024-01-15T05:10:44;2.50;99.90
11922;DHT22;6021;51.182;3.160;2024-01-15T05:13:13;2.50;99.90
11922;DHT22;6021;51.182;3.160;2024-01-15T05:15:41;2.50;99.90
11922;DHT22;6021;51.182;3.160;2024-01-15T05:18:09;2.50;99.90
11922;DHT22;6021;51.182;3.160;2024-01-15T05:20:38;2.50;99.90
11922;DHT22;6021;51.182;3.160;2024-01-15T05:23:07;2.60;99.90
11922;DHT22;6021;51.182;3.160;2024-01-15T05:25:36;2.60;99.90
11922;DHT22;6021;51.182;3.160;2024-01-15T05:28:06;2.50;99.90
11922;DHT22;6021;51.182;3.160;2024-01-15T05:30:34;2.70;99.90
11922;DHT22;6021;51.182;3.160;2024-01-15T05:33:02;2.70;99.90
11922;DHT22;6021;51.182;3.160;2024-01-15T05:35:31;2.90;99.90
11922;DHT22;6021;51.182;3.160;2024-01-15T05:37:59;2.90;99.90
11922;DHT22;6021;51.182;3.160;2024-01-15T05:40:27;3.00;99.90
11922;DHT22;6021;51.182;3.160;2024-01-15T05:42:56;2.90;99.90
11922;DHT22;6021;51.182;3.160;2024-01-15T05:45:25;2.90;99.90
11922;DHT22;6021;51.182;3.160;2024-01-15T05:47:54;3.00;99.90
11922;DHT22;6021;51.182;3.160;2024-01-15T05:50:23;3.10;99.90
11922;DHT22;6021;51.182;3.160;2024-01-15T05:52:51;2.80;99.90
11922;DHT22;6021;51.182;3.160;2024-01-15T05:55:20;2.70;99.90
11922;DHT22;6021;51.182;3.160;2024-01-15T05:57:48;2.50;99.90
11922;DHT22;6021;51.182;3.160;2024-01-15T06:00:17;2.50;99.90
11922;DHT22;6021;51.182;3.160;2024-01-15T06:02:45;2.60;99.90
11922;DHT22;6021;51.182;3.160;2024-01-15T06:05:14;2.70;99.90
11922;DHT22;6021;51.182;3.160;2024-01-15T06:07:42;2.70;99.90
11922;DHT22;6021;51.182;3.160;2024-01-15T06:10:11;2.50;99.90
11922;DHT22;6021;51.182;3.160;2024-01-15T06:12:39;2.30;99.90
11922;DHT22;6021;51.182;3.160;2024-01-15T06:15:08;2.40;99.90
11922;DHT22;6021;51.182;3.160;2024-01-15T06:17:36;2.20;99.90
11922;DHT22;6021;51.182;3.160;2024-01-15T06:20:05;2.30;99.90
11922;DHT22;6021;51.182;3.160;2024-01-15T06:22:33;2.20;99.90
11922;DHT22;6021;51.182;3.160;2024-01-15T06:25:04;2.30;99.90
11922;DHT22;6021;51.182;3.160;2024-01-15T06:27:33;2.30;99.90
11922;DHT22;6021;51.182;3.160;2024-01-15T06:30:01;2.20;99.90
11922;DHT22;6021;51.182;3.160;2024-01-15T06:32:30;2.30;99.90
11922;DHT22;6021;51.182;3.160;2024-01-15T06:34:58;2.20;99.90
11922;DHT22;6021;51.182;3.160;2024-01-15T06:37:26;2.20;99.90
11922;DHT22;6021;51.182;3.160;2024-01-15T06:39:55;2.20;99.90
11922;DHT22;6021;51.182;3.160;2024-01-15T06:42:24;2.20;99.90
11922;DHT22;6021;51.182;3.160;2024-01-15T06:44:53;2.20;99.90
11922;DHT22;6021;51.182;3.160;2024-01-15T06:47:21;2.20;99.90
11922;DHT22;6021;51.182;3.160;2024-01-15T06:49:49;2.20;99.90
11922;DHT22;6021;51.182;3.160;2024-01-15T06:52:19;2.30;99.90
11922;DHT22;6021;51.182;3.160;2024-01-15T06:54:47;2.20;99.90
11922;DHT22;6021;51.182;3.160;2024-01-15T06:57:15;2.40;99.90
11922;DHT22;6021;51.182;3.160;2024-01-15T06:59:44;2.40;99.90
11922;DHT22;6021;51.182;3.160;2024-01-15T07:02:12;2.30;99.90
11922;DHT22;6021;51.182;3.160;2024-01-15T07:04:40;2.30;99.90
11922;DHT22;6021;51.182;3.160;2024-01-15T07:07:10;2.30;99.90
11922;DHT22;6021;51.182;3.160;2024-01-15T07:09:38;2.30;99.90
11922;DHT22;6021;51.182;3.160;2024-01-15T07:12:06;2.20;99.90
11922;DHT22;6021;51.182;3.160;2024-01-15T07:14:35;2.30;99.90
11922;DHT22;6021;51.182;3.160;2024-01-15T07:17:03;2.10;99.90
11922;DHT22;6021;51.182;3.160;2024-01-15T07:19:31;2.00;99.90
11922;DHT22;6021;51.182;3.160;2024-01-15T07:22:00;2.10;99.90
11922;DHT22;6021;51.182;3.160;2024-01-15T07:24:28;2.10;99.90
11922;DHT22;6021;51.182;3.160;2024-01-15T07:26:57;2.10;99.90
11922;DHT22;6021;51.182;3.160;2024-01-15T07:29:25;2.40;99.90
11922;DHT22;6021;51.182;3.160;2024-01-15T07:31:54;2.20;99.90
11922;DHT22;6021;51.182;3.160;2024-01-15T07:34:22;2.30;99.90
11922;DHT22;6021;51.182;3.160;2024-01-15T07:36:51;2.30;99.90
11922;DHT22;6021;51.182;3.160;2024-01-15T07:39:19;2.30;99.90
11922;DHT22;6021;51.182;3.160;2024-01-15T07:41:47;2.50;99.90
11922;DHT22;6021;51.182;3.160;2024-01-15T07:44:17;2.40;99.90
11922;DHT22;6021;51.182;3.160;2024-01-15T07:46:46;2.20;99.90
11922;DHT22;6021;51.182;3.160;2024-01-15T07:49:15;2.20;99.90
11922;DHT22;6021;51.182;3.160;2024-01-15T07:51:44;2.40;99.90
11922;DHT22;6021;51.182;3.160;2024-01-15T07:54:12;2.30;99.90
11922;DHT22;6021;51.182;3.160;2024-01-15T07:56:59;2.30;99.90
11922;DHT22;6021;51.182;3.160;2024-01-15T07:59:28;2.30;99.90
11922;DHT22;6021;51.182;3.160;2024-01-15T08:01:58;2.30;99.90
11922;DHT22;6021;51.182;3.160;2024-01-15T08:04:26;2.30;99.90
11922;DHT22;6021;51.182;3.160;2024-01-15T08:06:55;2.30;99.90
11922;DHT22;6021;51.182;3.160;2024-01-15T08:09:24;2.50;99.90
11922;DHT22;6021;51.182;3.160;2024-01-15T08:11:52;2.50;99.90
11922;DHT22;6021;51.182;3.160;2024-01-15T08:14:21;2.30;99.90
11922;DHT22;6021;51.182;3.160;2024-01-15T08:16:49;2.40;99.90
11922;DHT22;6021;51.182;3.160;2024-01-15T08:19:18;2.60;99.90
11922;DHT22;6021;51.182;3.160;2024-01-15T08:21:47;2.60;99.90
11922;DHT22;6021;51.182;3.160;2024-01-15T08:24:15;2.70;99.90
11922;DHT22;6021;51.182;3.160;2024-01-15T08:26:44;2.50;99.90
11922;DHT22;6021;51.182;3.160;2024-01-15T08:29:12;2.80;99.90
11922;DHT22;6021;51.182;3.160;2024-01-15T08:31:41;2.70;99.90
11922;DHT22;6021;51.182;3.160;2024-01-15T08:34:09;2.70;99.90
11922;DHT22;6021;51.182;3.160;2024-01-15T08:36:40;2.70;99.90
11922;DHT22;6021;51.182;3.160;2024-01-15T08:39:08;2.90;99.90
11922;DHT22;6021;51.182;3.160;2024-01-15T08:41:36;2.70;99.90
11922;DHT22;6021;51.182;3.160;2024-01-15T08:44:05;2.70;99.90
11922;DHT22;6021;51.182;3.160;2024-01-15T08:46:33;2.70;99.90
11922;DHT22;6021;51.182;3.160;2024-01-15T08:49:01;3.00;99.90
11922;DHT22;6021;51.182;3.160;2024-01-15T08:51:30;2.80;99.90
11922;DHT22;6021;51.182;3.160;2024-01-15T08:53:58;2.80;99.90
11922;DHT22;6021;51.182;3.160;2024-01-15T08:56:27;2.90;99.90
11922;DHT22;6021;51.182;3.160;2024-01-15T08:58:55;2.70;99.90
11922;DHT22;6021;51.182;3.160;2024-01-15T09:01:23;2.70;99.90
11922;DHT22;6021;51.182;3.160;2024-01-15T09:03:52;3.10;99.90
11922;DHT22;6021;51.182;3.160;2024-01-15T09:06:20;3.00;99.90
11922;DHT22;6021;51.182;3.160;2024-01-15T09:08:49;3.00;99.90
11922;DHT22;6021;51.182;3.160;2024-01-15T09:11:17;2.90;99.90
11922;DHT22;6021;51.182;3.160;2024-01-15T09:13:45;3.00;99.90
11922;DHT22;6021;51.182;3.160;2024-01-15T09:16:14;3.20;99.90
11922;DHT22;6021;51.182;3.160;2024-01-15T09:18:42;3.00;99.90
11922;DHT22;6021;51.182;3.160;2024-01-15T09:21:10;3.20;99.90
11922;DHT22;6021;51.182;3.160;2024-01-15T09:23:39;2.80;99.90
11922;DHT22;6021;51.182;3.160;2024-01-15T09:26:08;2.90;99.90
11922;DHT22;6021;51.182;3.160;2024-01-15T09:28:37;3.40;99.90
11922;DHT22;6021;51.182;3.160;2024-01-15T09:31:05;4.40;99.90
11922;DHT22;6021;51.182;3.160;2024-01-15T09:33:33;4.90;99.90
11922;DHT22;6021;51.182;3.160;2024-01-15T09:36:03;4.60;99.90
11922;DHT22;6021;51.182;3.160;2024-01-15T09:38:31;4.90;99.90
11922;DHT22;6021;51.182;3.160;2024-01-15T09:41:00;5.50;99.90
11922;DHT22;6021;51.182;3.160;2024-01-15T09:43:28;5.90;99.90
11922;DHT22;6021;51.182;3.160;2024-01-15T09:45:57;6.00;99.90
11922;DHT22;6021;51.182;3.160;2024-01-15T09:48:27;5.60;99.90
11922;DHT22;6021;51.182;3.160;2024-01-15T09:50:57;5.50;99.90
11922;DHT22;6021;51.182;3.160;2024-01-15T09:53:26;5.00;99.90
11922;DHT22;6021;51.182;3.160;2024-01-15T09:55:54;5.10;99.90
11922;DHT22;6021;51.182;3.160;2024-01-15T09:58:23;5.20;99.90
11922;DHT22;6021;51.182;3.160;2024-01-15T10:00:52;5.50;99.90
11922;DHT22;6021;51.182;3.160;2024-01-15T10:03:21;5.10;99.90
11922;DHT22;6021;51.182;3.160;2024-01-15T10:05:49;4.70;99.90
11922;DHT22;6021;51.182;3.160;2024-01-15T10:08:18;4.60;99.90
11922;DHT22;6021;51.182;3.160;2024-01-15T10:10:47;4.60;99.90
11922;DHT22;6021;51.182;3.160;2024-01-15T10:13:16;4.70;99.90
11922;DHT22;6021;51.182;3.160;2024-01-15T10:15:47;4.30;99.90
11922;DHT22;6021;51.182;3.160;2024-01-15T10:18:16;4.40;99.90
11922;DHT22;6021;51.182;3.160;2024-01-15T10:20:45;4.00;99.90
11922;DHT22;6021;51.182;3.160;2024-01-15T10:23:14;4.40;99.90
11922;DHT22;6021;51.182;3.160;2024-01-15T10:25:43;4.90;99.90
11922;DHT22;6021;51.182;3.160;2024-01-15T10:28:13;4.80;99.90
11922;DHT22;6021;51.182;3.160;2024-01-15T10:30:41;4.90;99.90
11922;DHT22;6021;51.182;3.160;2024-01-15T10:33:10;5.20;99.90
11922;DHT22;6021;51.182;3.160;2024-01-15T10:35:39;5.50;99.90
11922;DHT22;6021;51.182;3.160;2024-01-15T10:38:09;5.50;99.90
11922;DHT22;6021;51.182;3.160;2024-01-15T10:40:37;5.60;99.90
11922;DHT22;6021;51.182;3.160;2024-01-15T10:43:06;5.60;99.90
11922;DHT22;6021;51.182;3.160;2024-01-15T10:45:34;5.60;99.90
11922;DHT22;6021;51.182;3.160;2024-01-15T10:48:03;5.40;99.90
11922;DHT22;6021;51.182;3.160;2024-01-15T10:50:32;5.20;99.90
11922;DHT22;6021;51.182;3.160;2024-01-15T10:53:01;5.20;99.90
11922;DHT22;6021;51.182;3.160;2024-01-15T10:55:33;5.00;99.90
11922;DHT22;6021;51.182;3.160;2024-01-15T10:58:03;4.90;99.90
11922;DHT22;6021;51.182;3.160;2024-01-15T11:00:34;4.60;99.90
11922;DHT22;6021;51.182;3.160;2024-01-15T11:03:05;4.70;99.90
11922;DHT22;6021;51.182;3.160;2024-01-15T11:05:38;4.40;99.90
11922;DHT22;6021;51.182;3.160;2024-01-15T11:08:07;4.40;99.90
11922;DHT22;6021;51.182;3.160;2024-01-15T11:10:46;4.20;99.90
11922;DHT22;6021;51.182;3.160;2024-01-15T11:13:21;4.50;99.90
11922;DHT22;6021;51.182;3.160;2024-01-15T11:18:28;4.60;99.90
11922;DHT22;6021;51.182;3.160;2024-01-15T11:23:56;4.50;99.90
11922;DHT22;6021;51.182;3.160;2024-01-15T11:26:43;4.50;99.90
11922;DHT22;6021;51.182;3.160;2024-01-15T11:29:31;4.70;99.90
11922;DHT22;6021;51.182;3.160;2024-01-15T11:34:11;4.60;99.90
11922;DHT22;6021;51.182;3.160;2024-01-15T11:42:02;4.40;99.90
11922;DHT22;6021;51.182;3.160;2024-01-15T11:44:31;4.40;99.90
11922;DHT22;6021;51.182;3.160;2024-01-15T11:47:04;4.20;99.90
11922;DHT22;6021;51.182;3.160;2024-01-15T11:52:11;4.40;99.90
11922;DHT22;6021;51.182;3.160;2024-01-15T11:54:40;4.40;99.90
11922;DHT22;6021;51.182;3.160;2024-01-15T11:57:15;4.10;99.90
11922;DHT22;6021;51.182;3.160;2024-01-15T11:59:41;4.40;99.90
11922;DHT22;6021;51.182;3.160;2024-01-15T12:02:10;4.60;99.90
11922;DHT22;6021;51.182;3.160;2024-01-15T12:04:40;4.60;99.90
11922;DHT22;6021;51.182;3.160;2024-01-15T12:07:08;4.60;99.90
11922;DHT22;6021;51.182;3.160;2024-01-15T12:09:48;4.60;99.90
11922;DHT22;6021;51.182;3.160;2024-01-15T12:12:10;4.70;99.90
11922;DHT22;6021;51.182;3.160;2024-01-15T12:14:41;4.40;99.90
11922;DHT22;6021;51.182;3.160;2024-01-15T12:17:09;4.60;99.90
11922;DHT22;6021;51.182;3.160;2024-01-15T12:19:38;4.50;99.90
11922;DHT22;6021;51.182;3.160;2024-01-15T12:22:06;4.40;99.90
11922;DHT22;6021;51.182;3.160;2024-01-15T12:24:36;4.40;99.90
11922;DHT22;6021;51.182;3.160;2024-01-15T12:27:04;4.70;99.90
11922;DHT22;6021;51.182;3.160;2024-01-15T12:29:33;4.70;99.90
11922;DHT22;6021;51.182;3.160;2024-01-15T12:32:01;4.40;99.90
11922;DHT22;6021;51.182;3.160;2024-01-15T12:34:30;4.60;99.90
11922;DHT22;6021;51.182;3.160;2024-01-15T12:37:00;4.60;99.90
11922;DHT22;6021;51.182;3.160;2024-01-15T12:39:28;4.60;99.90
11922;DHT22;6021;51.182;3.160;2024-01-15T12:41:57;4.60;99.90
11922;DHT22;6021;51.182;3.160;2024-01-15T12:44:26;4.80;99.90
11922;DHT22;6021;51.182;3.160;2024-01-15T12:46:54;4.90;99.90
11922;DHT22;6021;51.182;3.160;2024-01-15T12:49:24;4.80;99.90
11922;DHT22;6021;51.182;3.160;2024-01-15T12:51:53;4.90;99.90
11922;DHT22;6021;51.182;3.160;2024-01-15T12:54:23;4.50;99.90
11922;DHT22;6021;51.182;3.160;2024-01-15T12:56:52;4.60;99.90
11922;DHT22;6021;51.182;3.160;2024-01-15T12:59:20;4.60;99.90
11922;DHT22;6021;51.182;3.160;2024-01-15T13:01:48;4.60;99.90
11922;DHT22;6021;51.182;3.160;2024-01-15T13:04:23;4.40;99.90
11922;DHT22;6021;51.182;3.160;2024-01-15T13:06:52;4.60;99.90
11922;DHT22;6021;51.182;3.160;2024-01-15T13:09:20;4.40;99.90
11922;DHT22;6021;51.182;3.160;2024-01-15T13:11:49;4.10;99.90
11922;DHT22;6021;51.182;3.160;2024-01-15T13:14:17;4.20;99.90
11922;DHT22;6021;51.182;3.160;2024-01-15T13:16:45;4.40;99.90
11922;DHT22;6021;51.182;3.160;2024-01-15T13:19:14;4.30;99.90
11922;DHT22;6021;51.182;3.160;2024-01-15T13:21:44;4.40;99.90
11922;DHT22;6021;51.182;3.160;2024-01-15T13:24:12;4.40;99.90
11922;DHT22;6021;51.182;3.160;2024-01-15T13:26:41;4.40;99.90
11922;DHT22;6021;51.182;3.160;2024-01-15T13:29:09;4.20;99.90
11922;DHT22;6021;51.182;3.160;2024-01-15T13:31:38;4.40;99.90
11922;DHT22;6021;51.182;3.160;2024-01-15T13:34:06;4.40;99.90
11922;DHT22;6021;51.182;3.160;2024-01-15T13:36:34;4.20;99.90
11922;DHT22;6021;51.182;3.160;2024-01-15T13:39:03;4.20;99.90
11922;DHT22;6021;51.182;3.160;2024-01-15T13:41:33;4.20;99.90
11922;DHT22;6021;51.182;3.160;2024-01-15T13:44:01;4.10;99.90
11922;DHT22;6021;51.182;3.160;2024-01-15T13:46:30;4.00;99.90
11922;DHT22;6021;51.182;3.160;2024-01-15T13:48:58;4.10;99.90
11922;DHT22;6021;51.182;3.160;2024-01-15T13:51:26;3.90;99.90
11922;DHT22;6021;51.182;3.160;2024-01-15T13:53:55;4.20;99.90
11922;DHT22;6021;51.182;3.160;2024-01-15T13:56:23;4.20;99.90
